Time;durP1;ratioP1;P1;durP2;ratioP2;P2;SDS_P1;SDS_P2;PMS_P1;PMS_P2;Temp;Humidity;BMP_temperature;BMP_pressure;BME280_temperature;BME280_humidity;BME280_pressure;Samples;Min_cycle;Max_cycle;Signal;HPM_P1;HPM_P2
2022/12/31 00:01:05;;;;;;;4.80;4.60;;;;;;;12.68;100.00;100149.78;6058966;23;20239;-73
2022/12/31 00:03:33;;;;;;;4.78;4.57;;;;;;;12.66;100.00;100150.84;6057969;23;20030;-72
2022/12/31 00:05:59;;;;;;;4.63;4.43;;;;;;;12.52;100.00;100107.91;6083020;23;20036;-72
2022/12/31 00:08:26;;;;;;;4.47;4.28;;;;;;;12.42;100.00;100114.75;6059187;23;20022;-73
2022/12/31 00:10:52;;;;;;;4.50;4.30;;;;;;;12.14;100.00;100055.31;6067266;23;20106;-72
2022/12/31 00:13:19;;;;;;;4.47;4.28;;;;;;;12.69;100.00;100153.25;6065942;23;20594;-73
2022/12/31 00:15:46;;;;;;;4.50;4.30;;;;;;;12.65;100.00;100093.88;6059525;23;20054;-73
2022/12/31 00:18:12;;;;;;;4.82;4.63;;;;;;;12.91;100.00;100148.19;6081473;23;20014;-73
2022/12/31 00:20:40;;;;;;;4.55;4.35;;;;;;;12.88;100.00;100153.66;6057511;23;20011;-73
2022/12/31 00:23:08;;;;;;;4.68;4.47;;;;;;;12.70;100.00;100120.72;6056487;23;20032;-73
2022/12/31 00:25:35;;;;;;;4.68;4.47;;;;;;;12.87;100.00;100143.22;6078681;23;20511;-73
2022/12/31 00:28:04;;;;;;;4.80;4.60;;;;;;;12.26;100.00;100064.97;6031896;23;20216;-74
2022/12/31 00:30:33;;;;;;;4.55;4.35;;;;;;;11.33;100.00;99914.50;6028118;23;20038;-74
2022/12/31 00:32:59;;;;;;;4.60;4.40;;;;;;;12.75;100.00;100153.69;6084268;23;20046;-73
2022/12/31 00:35:26;;;;;;;4.50;4.30;;;;;;;12.72;100.00;100143.34;6055029;23;20029;-73
2022/12/31 00:37:52;;;;;;;4.70;4.50;;;;;;;12.70;100.00;100140.00;6055218;23;20111;-73
2022/12/31 00:40:19;;;;;;;4.50;4.30;;;;;;;12.17;100.00;100055.09;6080349;23;20030;-73
2022/12/31 00:42:45;;;;;;;4.65;4.45;;;;;;;12.44;100.00;100096.22;6031508;23;20022;-74
2022/12/31 00:45:12;;;;;;;4.50;4.30;;;;;;;12.35;100.00;100093.28;6056186;23;21524;-73
2022/12/31 00:47:39;;;;;;;4.70;4.50;;;;;;;12.60;100.00;100138.94;6077320;23;20093;-73
2022/12/31 00:50:05;;;;;;;4.70;4.50;;;;;;;12.33;100.00;100073.31;6060115;23;20225;-72
2022/12/31 00:52:32;;;;;;;4.72;4.53;;;;;;;12.03;100.00;100023.63;6083946;23;20079;-73
2022/12/31 00:54:58;;;;;;;4.95;4.70;;;;;;;12.61;100.00;100118.72;6051622;23;20022;-70
2022/12/31 00:57:25;;;;;;;4.70;4.50;;;;;;;12.01;100.00;100041.31;6059541;23;20022;-70
2022/12/31 00:59:51;;;;;;;4.75;4.55;;;;;;;12.43;100.00;100110.31;6053810;23;20014;-72
2022/12/31 01:02:18;;;;;;;4.70;4.50;;;;;;;11.55;100.00;99962.00;6032090;23;20081;-70
2022/12/31 01:04:44;;;;;;;4.63;4.43;;;;;;;11.70;100.00;99991.63;6072301;23;20385;-71
2022/12/31 01:07:10;;;;;;;5.20;4.90;;;;;;;12.01;100.00;100039.53;6059535;23;20026;-70
2022/12/31 01:09:37;;;;;;;4.70;4.50;;;;;;;11.60;100.00;99995.00;6075801;23;20064;-71
2022/12/31 01:12:04;;;;;;;4.72;4.53;;;;;;;12.28;100.00;100078.88;6025704;23;20029;-70
2022/12/31 01:14:32;;;;;;;4.43;4.22;;;;;;;12.28;100.00;100086.75;6056050;23;20105;-70
2022/12/31 01:16:59;;;;;;;4.45;4.25;;;;;;;12.42;100.00;100095.50;6085203;23;20034;-70
2022/12/31 01:19:27;;;;;;;4.90;4.60;;;;;;;12.36;100.00;100094.97;6055119;23;20095;-71
2022/12/31 01:21:55;;;;;;;4.60;4.40;;;;;;;12.25;100.00;100079.09;6051732;23;20106;-72
2022/12/31 01:24:24;;;;;;;4.80;4.60;;;;;;;12.24;100.00;100084.44;6078510;23;20697;-71
2022/12/31 01:26:51;;;;;;;4.93;4.65;;;;;;;11.30;100.00;99917.31;6061714;23;20372;-72
2022/12/31 01:29:18;;;;;;;4.80;4.60;;;;;;;12.07;100.00;100038.28;6053131;23;20030;-72
2022/12/31 01:31:45;;;;;;;4.80;4.60;;;;;;;12.45;100.00;100103.16;6081350;23;20022;-69
2022/12/31 01:34:11;;;;;;;4.78;4.57;;;;;;;11.99;100.00;100020.41;6058113;23;20354;-71
2022/12/31 01:36:38;;;;;;;4.97;4.78;;;;;;;12.50;100.00;100087.91;6082130;23;20022;-71
2022/12/31 01:39:07;;;;;;;4.60;4.40;;;;;;;12.31;100.00;100044.47;6056829;23;20088;-71
2022/12/31 01:41:36;;;;;;;4.60;4.40;;;;;;;12.56;100.00;100080.41;6047649;23;20365;-71
2022/12/31 01:44:12;;;;;;;4.65;4.45;;;;;;;12.97;100.00;100110.88;6083459;23;20020;-72
2022/12/31 01:46:48;;;;;;;4.70;4.50;;;;;;;11.36;100.00;99827.56;6055666;23;20453;-71
2022/12/31 01:49:21;;;;;;;4.72;4.53;;;;;;;13.14;100.00;100070.13;6081378;23;20081;-71
2022/12/31 01:51:54;;;;;;;4.63;4.43;;;;;;;13.52;100.00;100107.84;6049317;23;20089;-72
2022/12/31 01:54:21;;;;;;;;;;;;;;;13.69;100.00;100122.38;6080114;23;20076;-72
2022/12/31 01:56:52;;;;;;;4.68;4.47;;;;;;;13.91;100.00;100108.44;6056195;23;19914;-70
2022/12/31 01:59:21;;;;;;;4.70;4.50;;;;;;;13.89;100.00;100113.84;6072811;23;20048;-72
2022/12/31 02:01:51;;;;;;;4.78;4.57;;;;;;;13.05;100.00;99980.38;6025723;23;20035;-71
2022/12/31 02:04:21;;;;;;;4.80;4.60;;;;;;;14.10;100.00;100137.75;6053119;23;20018;-70
2022/12/31 02:06:53;;;;;;;4.70;4.50;;;;;;;14.36;100.00;100141.03;6077981;23;20022;-70
2022/12/31 02:09:20;;;;;;;4.90;4.70;;;;;;;14.45;100.00;100150.06;6055261;23;20006;-70
2022/12/31 02:11:46;;;;;;;4.90;4.70;;;;;;;14.40;100.00;100141.66;6054465;23;20095;-70
2022/12/31 02:14:38;;;;;;;4.80;4.60;;;;;;;14.19;100.00;100107.16;6082927;23;20030;-71
2022/12/31 02:17:39;;;;;;;4.80;4.60;;;;;;;14.63;100.00;100131.13;6049376;23;20056;-70
2022/12/31 02:20:38;;;;;;;5.03;4.82;;;;;;;14.52;100.00;100137.22;6058086;23;20032;-70
2022/12/31 02:23:14;;;;;;;4.80;4.60;;;;;;;14.45;100.00;100136.00;6041588;23;20359;-71
2022/12/31 02:26:03;;;;;;;4.80;4.60;;;;;;;14.41;100.00;100139.84;6069677;23;20021;-70
2022/12/31 02:29:01;;;;;;;5.03;4.82;;;;;;;14.38;100.00;100129.53;6054579;23;20015;-70
2022/12/31 02:31:39;;;;;;;4.68;4.47;;;;;;;14.27;100.00;100109.22;6078304;23;20213;-70
2022/12/31 02:34:11;;;;;;;5.68;5.38;;;;;;;14.08;100.00;100071.06;6055086;23;20030;-71
2022/12/31 02:36:41;;;;;;;4.90;4.70;;;;;;;14.01;100.00;100061.09;6030566;23;20030;-70
2022/12/31 02:39:09;;;;;;;4.90;4.70;;;;;;;14.50;100.00;100141.78;6033530;23;20088;-70
2022/12/31 02:41:52;;;;;;;5.25;4.63;;;;;;;14.48;100.00;100122.56;6090190;23;20026;-70
2022/12/31 02:44:29;;;;;;;4.93;4.63;;;;;;;14.54;100.00;100146.69;6057681;23;20321;-72
2022/12/31 02:46:59;;;;;;;4.65;4.45;;;;;;;14.68;100.00;100137.72;6029349;23;20031;-71
2022/12/31 02:49:41;;;;;;;4.70;4.50;;;;;;;14.64;100.00;100141.56;6059898;23;20019;-71
2022/12/31 02:52:20;;;;;;;5.00;4.80;;;;;;;14.75;100.00;100146.00;6083545;23;20033;-72
2022/12/31 02:55:09;;;;;;;4.80;4.60;;;;;;;14.75;100.00;100152.16;6060058;23;20035;-72
2022/12/31 02:58:01;;;;;;;5.15;4.90;;;;;;;14.74;100.00;100133.78;6074393;23;20154;-72
2022/12/31 03:03:19;;;;;;;4.90;4.70;;;;;;;14.53;100.00;100101.91;6082793;23;20508;-72
2022/12/31 03:05:48;;;;;;;4.90;4.70;;;;;;;14.80;100.00;100154.41;6057620;23;20030;-71
2022/12/31 03:08:22;;;;;;;4.85;4.65;;;;;;;14.76;100.00;100137.13;6059650;23;20374;-71
2022/12/31 03:10:49;;;;;;;4.90;4.70;;;;;;;14.76;100.00;100153.81;6085801;23;20082;-70
2022/12/31 03:13:15;;;;;;;4.80;4.60;;;;;;;14.76;100.00;100119.47;6055444;23;20032;-72
2022/12/31 03:15:42;;;;;;;4.80;4.60;;;;;;;14.87;100.00;100158.25;6078428;23;20104;-71
2022/12/31 03:18:13;;;;;;;4.80;4.60;;;;;;;14.95;100.00;100165.56;6036541;23;20030;-71
2022/12/31 03:23:36;;;;;;;5.10;4.72;;;;;;;14.79;100.00;100128.13;6056329;23;20041;-71
2022/12/31 03:26:10;;;;;;;5.45;5.07;;;;;;;14.95;100.00;100150.56;6053063;23;20080;-70
2022/12/31 03:28:40;;;;;;;5.00;4.80;;;;;;;14.67;100.00;100120.22;6080076;23;20022;-71
2022/12/31 03:31:06;;;;;;;4.80;4.60;;;;;;;14.93;100.00;100139.28;6058003;23;20050;-72
2022/12/31 03:33:38;;;;;;;5.05;4.85;;;;;;;14.93;100.00;100157.78;6054019;23;20346;-72
2022/12/31 03:36:14;;;;;;;4.90;4.70;;;;;;;14.70;100.00;100119.13;6082585;23;20158;-71
2022/12/31 03:38:40;;;;;;;5.28;4.88;;;;;;;14.67;100.00;100133.41;6054586;23;20527;-71
2022/12/31 03:41:09;;;;;;;5.00;4.80;;;;;;;14.63;100.00;100128.47;6080720;23;20069;-71
2022/12/31 03:43:36;;;;;;;5.00;4.80;;;;;;;14.70;100.00;100150.81;6033782;23;20469;-71
2022/12/31 03:46:02;;;;;;;5.07;4.78;;;;;;;14.93;100.00;100164.84;6063432;23;20041;-72
2022/12/31 03:48:29;;;;;;;5.18;4.97;;;;;;;14.85;100.00;100175.19;6055995;23;20034;-70
2022/12/31 03:50:55;;;;;;;5.30;5.00;;;;;;;14.77;100.00;100186.34;6082319;23;20173;-71
2022/12/31 03:53:21;;;;;;;5.00;4.80;;;;;;;14.40;100.00;100132.88;6056166;23;20087;-71
2022/12/31 03:55:52;;;;;;;4.70;4.50;;;;;;;14.56;100.00;100143.97;6061115;23;20028;-70
2022/12/31 03:58:19;;;;;;;4.68;4.47;;;;;;;14.65;100.00;100179.38;6058473;23;20291;-70
2022/12/31 04:00:45;;;;;;;4.80;4.60;;;;;;;14.53;100.00;100154.72;6086884;23;20515;-71
2022/12/31 04:03:12;;;;;;;4.72;4.53;;;;;;;14.50;100.00;100136.50;6061127;23;20509;-71
2022/12/31 04:05:39;;;;;;;5.00;4.78;;;;;;;14.83;100.00;100182.38;6062894;23;20026;-71
2022/12/31 04:08:05;;;;;;;4.90;4.70;;;;;;;14.13;100.00;100074.19;6081323;23;20031;-71
2022/12/31 04:10:31;;;;;;;5.00;4.80;;;;;;;14.36;100.00;100100.59;6055375;23;20022;-70
2022/12/31 04:13:01;;;;;;;4.80;4.60;;;;;;;14.51;100.00;100132.88;6053972;23;20030;-71
2022/12/31 04:15:27;;;;;;;4.82;4.63;;;;;;;14.59;100.00;100137.59;6082060;23;20013;-71
2022/12/31 04:17:54;;;;;;;4.65;4.45;;;;;;;14.13;100.00;100078.63;6054280;23;20078;-71
2022/12/31 04:20:20;;;;;;;4.63;4.43;;;;;;;14.85;100.00;100169.91;6049593;23;20015;-72
2022/12/31 04:22:47;;;;;;;4.60;4.40;;;;;;;14.83;100.00;100185.03;6081729;23;20025;-72
2022/12/31 04:25:13;;;;;;;4.82;4.53;;;;;;;14.81;100.00;100173.75;6058132;23;20109;-73
2022/12/31 04:27:42;;;;;;;4.82;4.63;;;;;;;14.96;100.00;100212.19;6078022;23;20085;-73
2022/12/31 04:30:11;;;;;;;4.68;4.47;;;;;;;14.92;100.00;100193.06;6052507;23;20010;-73
2022/12/31 04:32:38;;;;;;;5.20;4.80;;;;;;;14.62;100.00;100137.38;6081920;23;20052;-73
2022/12/31 04:35:05;;;;;;;5.20;4.80;;;;;;;14.66;100.00;100147.56;6031506;23;20022;-73
2022/12/31 04:37:32;;;;;;;4.80;4.60;;;;;;;14.95;100.00;100205.19;6059725;23;20108;-73
2022/12/31 04:39:58;;;;;;;4.75;4.55;;;;;;;14.84;100.00;100190.19;6083394;23;20240;-73
2022/12/31 04:42:32;;;;;;;4.90;4.70;;;;;;;14.66;100.00;100160.78;6053066;23;20011;-73
2022/12/31 04:44:58;;;;;;;6.60;5.20;;;;;;;14.38;100.00;100096.03;6058159;23;20441;-74
2022/12/31 04:47:24;;;;;;;4.85;4.65;;;;;;;14.93;100.00;100186.84;6083057;23;20365;-73
2022/12/31 04:49:53;;;;;;;4.63;4.43;;;;;;;15.19;100.00;100225.38;6032585;23;20048;-71
2022/12/31 04:52:21;;;;;;;4.95;4.65;;;;;;;14.87;100.00;100171.44;6057307;23;20026;-71
2022/12/31 04:54:48;;;;;;;4.70;4.50;;;;;;;15.21;100.00;100229.56;6051801;23;20078;-71
2022/12/31 04:57:15;;;;;;;4.70;4.50;;;;;;;15.23;100.00;100227.66;6079835;23;20345;-71
2022/12/31 04:59:41;;;;;;;4.97;4.78;;;;;;;14.91;100.00;100172.91;6059911;23;20135;-71
2022/12/31 05:02:08;;;;;;;5.00;4.70;;;;;;;14.93;100.00;100165.72;6067640;23;20020;-70
2022/12/31 05:04:35;;;;;;;4.97;4.78;;;;;;;13.95;100.00;99997.31;6051609;23;20019;-70
2022/12/31 05:07:01;;;;;;;4.72;4.53;;;;;;;14.97;100.00;100195.34;6082604;23;20451;-71
2022/12/31 05:09:28;;;;;;;4.70;4.50;;;;;;;14.90;100.00;100163.28;6057733;23;20034;-70
2022/12/31 05:11:55;;;;;;;4.90;4.60;;;;;;;15.29;100.00;100215.75;6055898;23;20028;-71
2022/12/31 05:14:21;;;;;;;4.82;4.63;;;;;;;15.18;100.00;100221.06;6084542;23;20066;-70
2022/12/31 05:16:48;;;;;;;4.68;4.47;;;;;;;15.09;100.00;100198.84;6062583;23;20226;-73
2022/12/31 05:19:14;;;;;;;5.20;4.90;;;;;;;15.09;100.00;100173.22;6058941;23;20037;-72
2022/12/31 05:21:41;;;;;;;4.85;4.65;;;;;;;15.31;100.00;100212.00;6054553;23;20027;-71
2022/12/31 05:24:07;;;;;;;4.88;4.68;;;;;;;15.16;100.00;100222.00;6066233;23;20042;-69
2022/12/31 05:26:34;;;;;;;4.90;4.70;;;;;;;15.22;100.00;100212.75;6069072;23;20014;-71
2022/12/31 05:29:00;;;;;;;4.68;4.47;;;;;;;15.31;100.00;100221.75;6055591;23;20093;-71
2022/12/31 05:31:27;;;;;;;4.85;4.65;;;;;;;15.14;100.00;100218.66;6057537;23;20010;-70
2022/12/31 05:33:53;;;;;;;4.70;4.50;;;;;;;15.28;100.00;100228.13;6055723;23;20032;-71
2022/12/31 05:36:20;;;;;;;4.60;4.40;;;;;;;15.26;100.00;100221.31;6058727;23;20025;-70
2022/12/31 05:38:46;;;;;;;4.75;4.55;;;;;;;15.06;100.00;100207.03;6051924;23;20584;-70
2022/12/31 05:41:13;;;;;;;4.85;4.57;;;;;;;14.72;100.00;100156.81;6088391;23;20073;-73
2022/12/31 05:43:39;;;;;;;5.10;4.90;;;;;;;14.99;100.00;100189.94;6055805;23;20038;-73
2022/12/31 05:46:06;;;;;;;4.90;4.70;;;;;;;15.16;100.00;100222.00;6081786;23;20480;-73
2022/12/31 05:48:32;;;;;;;5.10;4.90;;;;;;;14.56;100.00;100097.28;6030133;23;20029;-72
2022/12/31 05:50:59;;;;;;;4.63;4.43;;;;;;;15.36;100.00;100216.97;6054943;23;20058;-73
2022/12/31 05:53:25;;;;;;;4.82;4.63;;;;;;;15.26;100.00;100216.00;6080770;23;20085;-73
2022/12/31 05:55:52;;;;;;;4.80;4.60;;;;;;;14.95;100.00;100173.50;6055970;23;20026;-73
2022/12/31 05:58:18;;;;;;;4.70;4.50;;;;;;;15.27;100.00;100247.59;6067561;23;20402;-72
2022/12/31 06:00:45;;;;;;;5.35;4.85;;;;;;;14.20;100.00;100069.28;6047471;23;20294;-73
2022/12/31 06:03:11;;;;;;;11.32;4.53;;;;;;;14.83;100.00;100193.78;6056804;23;20029;-73
2022/12/31 06:05:40;;;;;;;4.90;4.70;;;;;;;14.98;100.00;100228.75;6054088;23;20026;-74
2022/12/31 06:08:08;;;;;;;4.90;4.70;;;;;;;14.72;100.00;100156.81;6079289;23;20026;-73
2022/12/31 06:10:34;;;;;;;4.90;4.60;;;;;;;14.61;100.00;100178.75;6059294;23;20346;-73
2022/12/31 06:13:01;;;;;;;4.90;4.70;;;;;;;15.01;100.00;100235.59;6079911;23;20022;-73
2022/12/31 06:15:27;;;;;;;4.93;4.68;;;;;;;15.14;100.00;100281.25;6050074;23;20165;-73
2022/12/31 06:17:54;;;;;;;5.00;4.70;;;;;;;14.87;100.00;100226.94;6031567;23;20022;-74
2022/12/31 06:20:21;;;;;;;4.70;4.50;;;;;;;15.15;100.00;100267.94;6052447;23;20100;-73
2022/12/31 06:22:47;;;;;;;4.90;4.68;;;;;;;15.05;100.00;100250.25;6056722;23;20555;-74
2022/12/31 06:25:13;;;;;;;4.57;4.38;;;;;;;15.04;100.00;100288.22;6081696;23;20046;-72
2022/12/31 06:27:40;;;;;;;5.20;5.00;;;;;;;15.35;100.00;100281.34;6033367;23;20085;-71
2022/12/31 06:30:07;;;;;;;11.35;5.13;;;;;;;15.41;100.00;100296.75;6059918;23;20018;-70
2022/12/31 06:32:34;;;;;;;5.32;5.10;;;;;;;15.51;100.00;100302.97;6078196;23;20029;-70
2022/12/31 06:35:00;;;;;;;5.18;4.68;;;;;;;15.43;100.00;100289.53;6057981;23;20018;-71
2022/12/31 06:37:29;;;;;;;5.13;4.93;;;;;;;15.49;100.00;100312.84;6056391;23;20359;-70
2022/12/31 06:39:56;;;;;;;4.90;4.70;;;;;;;15.12;100.00;100259.41;6083877;23;20330;-70
2022/12/31 06:42:22;;;;;;;4.78;4.57;;;;;;;15.37;100.00;100303.22;6054717;23;20034;-71
2022/12/31 06:44:49;;;;;;;5.10;4.70;;;;;;;15.01;100.00;100235.59;6077439;23;20029;-71
2022/12/31 06:47:15;;;;;;;4.82;4.63;;;;;;;15.25;100.00;100293.63;6053631;23;20034;-73
2022/12/31 06:49:41;;;;;;;5.40;5.10;;;;;;;15.27;100.00;100297.81;6067204;23;20030;-73
2022/12/31 06:52:08;;;;;;;4.82;4.63;;;;;;;15.51;100.00;100331.25;6080919;23;20447;-73
2022/12/31 06:54:35;;;;;;;5.55;5.05;;;;;;;15.48;100.00;100339.44;6024963;23;20195;-71
2022/12/31 06:57:02;;;;;;;4.90;4.70;;;;;;;15.10;100.00;100270.06;6080861;23;20097;-71
2022/12/31 06:59:29;;;;;;;5.20;4.90;;;;;;;15.38;100.00;100318.16;6049860;23;20107;-71
2022/12/31 07:02:26;;;;;;;5.20;4.68;;;;;;;15.34;100.00;100341.34;6059301;23;20038;-71
2022/12/31 07:04:59;;;;;;;5.00;4.80;;;;;;;15.10;100.00;100309.72;6072422;23;20037;-71
2022/12/31 07:07:52;;;;;;;4.80;4.60;;;;;;;15.29;100.00;100322.34;6050617;23;20023;-71
2022/12/31 07:10:38;;;;;;;5.28;4.97;;;;;;;15.39;100.00;100356.84;6031339;23;20464;-71
2022/12/31 07:13:12;;;;;;;4.80;4.60;;;;;;;15.13;100.00;100309.50;6055780;23;20046;-70
2022/12/31 07:15:54;;;;;;;5.60;5.30;;;;;;;15.39;100.00;100338.31;6050754;23;20044;-71
2022/12/31 07:18:45;;;;;;;4.68;4.47;;;;;;;14.88;100.00;100251.56;6079846;23;20037;-71
2022/12/31 07:21:15;;;;;;;5.38;4.88;;;;;;;15.32;100.00;100329.22;6044720;23;20023;-71
2022/12/31 07:23:42;;;;;;;5.05;4.85;;;;;;;15.48;100.00;100348.19;6072604;23;20720;-71
2022/12/31 07:26:29;;;;;;;5.35;5.05;;;;;;;15.48;100.00;100345.56;6054076;23;20326;-73
2022/12/31 07:29:23;;;;;;;4.80;4.60;;;;;;;15.13;100.00;100285.72;6081497;23;20025;-72
2022/12/31 07:32:18;;;;;;;4.97;4.78;;;;;;;15.64;100.00;100360.22;6051997;23;20101;-70
2022/12/31 07:35:03;;;;;;;5.30;5.00;;;;;;;15.12;100.00;100269.97;6057812;23;20302;-70
2022/12/31 07:37:45;;;;;;;5.03;4.82;;;;;;;15.70;100.00;100343.88;6051046;23;20017;-71
2022/12/31 07:40:17;;;;;;;5.25;4.95;;;;;;;15.25;100.00;100268.03;6054195;23;20481;-70
2022/12/31 07:42:47;;;;;;;;;;;;;;;14.90;100.00;100199.44;6077888;23;20112;-70
2022/12/31 07:45:23;;;;;;;4.80;4.60;;;;;;;15.68;100.00;100332.56;6087210;23;19918;-68
2022/12/31 07:47:50;;;;;;;4.88;4.68;;;;;;;15.72;100.00;100347.22;6055967;23;20549;-71
2022/12/31 07:50:17;;;;;;;5.13;4.93;;;;;;;15.74;100.00;100332.09;6079693;23;20022;-70
2022/12/31 07:52:45;;;;;;;5.57;5.22;;;;;;;15.17;100.00;100238.72;6051357;23;20250;-70
2022/12/31 07:55:11;;;;;;;5.10;4.90;;;;;;;15.81;100.00;100328.00;6047104;23;20480;-69
2022/12/31 07:57:50;;;;;;;5.30;5.10;;;;;;;15.89;100.00;100333.50;6057739;23;20018;-70
2022/12/31 08:00:17;;;;;;;5.40;5.00;;;;;;;15.87;98.88;100332.78;6063765;23;20037;-69
2022/12/31 08:03:20;;;;;;;5.60;5.20;;;;;;;15.89;98.91;100335.31;6057017;23;20026;-70
2022/12/31 08:06:09;;;;;;;5.20;5.00;;;;;;;15.83;99.39;100326.06;6037373;23;20018;-70
2022/12/31 08:09:05;;;;;;;5.10;4.90;;;;;;;15.85;98.71;100350.59;6049955;23;20469;-72
2022/12/31 08:11:44;;;;;;;5.35;5.10;;;;;;;15.59;98.17;100293.59;6077890;23;20092;-73
2022/12/31 08:14:15;;;;;;;5.28;4.80;;;;;;;15.55;98.06;100271.84;6052651;23;20246;-72
2022/12/31 08:16:41;;;;;;;5.50;5.20;;;;;;;16.02;96.86;100382.84;6078327;23;20018;-72
2022/12/31 08:19:28;;;;;;;5.20;5.00;;;;;;;16.07;96.50;100351.53;6053751;23;20050;-70
2022/12/31 08:22:17;;;;;;;5.40;5.10;;;;;;;16.03;96.23;100344.78;6054816;23;20201;-69
2022/12/31 08:25:07;;;;;;;5.40;5.10;;;;;;;16.04;96.42;100363.22;6052074;23;20045;-69
2022/12/31 08:28:04;;;;;;;5.38;5.07;;;;;;;16.08;96.56;100355.88;6079461;23;20033;-70
2022/12/31 08:30:40;;;;;;;5.00;4.80;;;;;;;16.03;95.91;100353.56;6053720;23;20022;-70
2022/12/31 08:33:20;;;;;;;5.43;5.13;;;;;;;15.94;96.50;100362.28;6079929;23;20487;-71
2022/12/31 08:36:16;;;;;;;5.20;5.00;;;;;;;15.72;96.52;100328.72;6053375;23;20023;-70
2022/12/31 08:39:02;;;;;;;5.55;5.25;;;;;;;14.87;95.83;100179.38;6078115;23;20350;-70
2022/12/31 08:41:48;;;;;;;4.97;4.78;;;;;;;15.55;96.14;100301.81;6057352;23;20010;-69
2022/12/31 08:44:59;;;;;;;4.97;4.78;;;;;;;16.12;95.23;100376.66;6029525;23;20038;-69
2022/12/31 08:47:43;;;;;;;5.00;4.80;;;;;;;15.29;95.08;100221.88;5944950;24;20087;-70
2022/12/31 08:50:15;;;;;;;5.10;4.90;;;;;;;16.22;94.09;100376.75;5988289;23;20178;-70
2022/12/31 08:52:42;;;;;;;5.50;5.20;;;;;;;15.97;93.97;100329.41;6012014;23;20030;-73
2022/12/31 08:55:17;;;;;;;5.32;5.13;;;;;;;16.21;93.84;100374.22;6077462;23;20444;-72
2022/12/31 08:58:19;;;;;;;5.20;4.90;;;;;;;16.22;94.84;100368.00;6055706;23;20046;-72
2022/12/31 09:00:48;;;;;;;5.63;5.22;;;;;;;15.72;94.08;100294.31;6055745;23;20030;-72
2022/12/31 09:03:53;;;;;;;5.65;5.25;;;;;;;16.34;93.73;100375.75;6076293;23;20030;-73
2022/12/31 09:06:30;;;;;;;5.30;5.05;;;;;;;16.34;93.62;100378.41;6054296;23;20082;-73
2022/12/31 09:09:26;;;;;;;4.90;4.70;;;;;;;16.31;93.44;100383.94;6075583;23;20493;-73
2022/12/31 09:12:09;;;;;;;5.00;4.80;;;;;;;16.38;93.25;100391.38;6051118;23;20002;-73
2022/12/31 09:14:57;;;;;;;5.45;5.18;;;;;;;16.34;93.88;100396.94;6071820;23;20021;-74
2022/12/31 09:17:45;;;;;;;5.30;5.00;;;;;;;16.12;93.86;100373.19;6051104;23;20089;-73
2022/12/31 09:20:21;;;;;;;5.68;5.35;;;;;;;16.13;93.98;100378.34;6032155;23;20089;-74
2022/12/31 09:22:48;;;;;;;5.57;5.28;;;;;;;16.37;94.46;100414.38;6056861;23;20425;-70
2022/12/31 09:25:17;;;;;;;5.10;4.90;;;;;;;16.35;94.04;100438.34;6072426;23;20449;-70
2022/12/31 09:28:27;;;;;;;5.20;5.00;;;;;;;16.39;94.00;100449.53;6032104;23;20333;-70
2022/12/31 09:31:04;;;;;;;5.50;5.10;;;;;;;16.28;94.14;100434.53;6077120;23;20026;-69
2022/12/31 09:33:45;;;;;;;5.40;5.18;;;;;;;16.49;93.05;100457.59;6055593;23;20473;-70
2022/12/31 09:36:21;;;;;;;5.30;5.07;;;;;;;16.48;92.85;100456.75;6050828;23;20040;-68
2022/12/31 09:39:15;;;;;;;5.50;5.10;;;;;;;16.56;91.75;100456.13;6050372;23;20547;-70
2022/12/31 09:41:53;;;;;;;5.35;5.05;;;;;;;16.61;91.13;100461.88;6078861;23;20116;-69
2022/12/31 09:44:53;;;;;;;5.15;4.93;;;;;;;16.64;90.25;100464.28;6056369;23;20088;-69
2022/12/31 09:47:57;;;;;;;6.00;5.50;;;;;;;16.64;90.41;100464.28;6082642;23;20025;-70
2022/12/31 09:50:55;;;;;;;5.30;5.10;;;;;;;16.42;89.99;100421.97;6055665;23;20026;-70
2022/12/31 09:53:24;;;;;;;5.63;5.32;;;;;;;16.72;89.23;100461.03;6082668;23;20018;-70
2022/12/31 09:55:57;;;;;;;5.65;5.25;;;;;;;16.53;89.34;100425.41;6035579;23;20022;-68
2022/12/31 09:58:42;;;;;;;5.32;5.10;;;;;;;16.64;89.57;100453.69;6058772;23;20041;-69
2022/12/31 10:01:23;;;;;;;5.22;5.00;;;;;;;16.69;89.86;100462.09;6084215;23;20025;-72
2022/12/31 10:03:56;;;;;;;7.22;5.30;;;;;;;16.71;89.58;100467.28;6058333;23;20151;-72
2022/12/31 10:06:41;;;;;;;5.20;5.00;;;;;;;16.74;89.29;100470.53;6082443;23;20058;-72
2022/12/31 10:09:35;;;;;;;5.28;4.97;;;;;;;16.80;89.00;100465.66;6054754;23;20312;-72
2022/12/31 10:12:18;;;;;;;5.88;5.32;;;;;;;16.71;88.91;100477.88;6031111;23;20022;-72
2022/12/31 10:15:12;;;;;;;5.30;5.10;;;;;;;16.72;89.37;100475.09;6053174;23;20033;-68
2022/12/31 10:17:58;;;;;;;5.82;5.53;;;;;;;16.77;89.61;100473.88;6078523;23;20022;-68
2022/12/31 10:20:37;;;;;;;5.10;4.90;;;;;;;16.79;88.96;100472.78;6053525;23;20034;-68
2022/12/31 10:23:38;;;;;;;5.40;5.10;;;;;;;16.67;89.07;100463.19;6038490;23;20018;-68
2022/12/31 10:26:14;;;;;;;5.47;5.13;;;;;;;16.79;89.43;100464.84;6069791;23;20049;-68
2022/12/31 10:29:22;;;;;;;5.88;5.50;;;;;;;16.81;89.20;100465.59;6050933;23;20033;-69
2022/12/31 10:31:52;;;;;;;5.68;5.30;;;;;;;15.64;89.06;100272.94;6029912;23;20050;-69
2022/12/31 10:34:43;;;;;;;5.60;5.30;;;;;;;16.25;88.58;100365.91;6079803;23;20029;-70
2022/12/31 10:37:15;;;;;;;5.20;5.00;;;;;;;16.97;88.40;100475.75;6051135;23;20022;-70
2022/12/31 10:39:52;;;;;;;5.88;5.47;;;;;;;16.99;87.63;100475.66;6072084;23;20228;-70
2022/12/31 10:42:42;;;;;;;5.60;5.20;;;;;;;16.53;87.56;100398.91;6053019;23;20022;-69
2022/12/31 10:45:48;;;;;;;5.30;5.10;;;;;;;17.06;87.34;100466.19;6055104;23;20109;-70
2022/12/31 10:48:49;;;;;;;5.57;5.30;;;;;;;16.78;87.56;100411.94;6080782;23;21274;-69
2022/12/31 10:51:19;;;;;;;5.63;5.07;;;;;;;17.03;87.75;100456.69;6058424;23;20031;-70
2022/12/31 10:54:21;;;;;;;5.82;5.53;;;;;;;17.12;87.24;100455.13;6074330;23;20026;-69
2022/12/31 10:57:09;;;;;;;5.68;5.38;;;;;;;17.04;87.48;100447.78;6054076;23;20030;-69
2022/12/31 10:59:57;;;;;;;5.57;5.35;;;;;;;16.88;87.64;100412.94;6044738;23;20084;-69
2022/12/31 11:03:05;;;;;;;5.30;5.10;;;;;;;17.04;86.90;100444.28;6078289;23;20624;-69
2022/12/31 11:05:53;;;;;;;6.40;5.45;;;;;;;16.67;86.62;100373.09;6058634;23;20010;-70
2022/12/31 11:09:01;;;;;;;5.55;5.25;;;;;;;16.93;86.44;100410.72;6076447;23;20026;-69
2022/12/31 11:11:57;;;;;;;5.88;5.40;;;;;;;17.15;86.20;100452.19;5954023;23;20027;-69
2022/12/31 11:14:42;;;;;;;5.65;5.20;;;;;;;17.02;85.37;100423.22;6058872;23;20458;-70
2022/12/31 11:17:38;;;;;;;5.30;5.10;;;;;;;17.31;84.85;100438.47;6055845;23;20022;-69
2022/12/31 11:20:08;;;;;;;6.20;5.70;;;;;;;16.09;84.80;100247.19;6073817;23;20622;-69
2022/12/31 11:22:41;;;;;;;5.82;5.53;;;;;;;17.27;85.00;100450.31;6081339;23;20465;-69
2022/12/31 11:25:10;;;;;;;9.02;5.30;;;;;;;17.28;85.15;100436.06;6075044;23;20021;-70
2022/12/31 11:27:53;;;;;;;5.95;5.65;;;;;;;17.26;84.52;100443.31;6084240;23;20019;-70
2022/12/31 11:30:57;;;;;;;7.07;5.00;;;;;;;17.23;84.91;100432.97;6063104;23;20034;-70
2022/12/31 11:33:47;;;;;;;5.22;5.03;;;;;;;17.19;84.19;100420.94;6078844;23;20047;-71
2022/12/31 11:36:34;;;;;;;5.57;5.28;;;;;;;17.17;84.55;100404.34;6052119;23;20018;-69
2022/12/31 11:39:29;;;;;;;5.50;5.20;;;;;;;17.13;84.43;100415.19;6077977;23;20047;-70
2022/12/31 11:42:30;;;;;;;6.05;5.75;;;;;;;17.04;84.98;100434.53;6052877;23;20359;-69
2022/12/31 11:45:03;;;;;;;5.13;4.82;;;;;;;17.05;85.39;100425.59;6081858;23;20518;-70
2022/12/31 11:48:13;;;;;;;5.55;5.00;;;;;;;16.98;85.60;100431.53;6054743;23;20472;-69
2022/12/31 11:51:12;;;;;;;5.10;4.90;;;;;;;16.99;85.29;100439.38;6077751;23;20405;-70
2022/12/31 11:54:07;;;;;;;5.70;5.40;;;;;;;16.99;84.95;100425.28;6057919;23;20375;-70
2022/12/31 11:56:39;;;;;;;5.50;5.20;;;;;;;16.98;84.74;100419.16;6090239;23;20088;-69
2022/12/31 11:59:12;;;;;;;6.43;5.30;;;;;;;16.96;84.73;100437.00;6031846;23;20022;-69
2022/12/31 12:02:03;;;;;;;5.72;5.43;;;;;;;16.53;84.65;100355.69;6087980;23;20034;-68